createdAt,value
2022-12-24T00:02:15.591Z,10.01
2022-12-24T00:04:46.558Z,10.02
2022-12-24T00:07:23.858Z,10.08
2022-12-24T00:09:53.665Z,9.88
2022-12-24T00:12:23.425Z,9.88
2022-12-24T00:14:52.146Z,9.99
2022-12-24T00:17:24.381Z,9.93
2022-12-24T00:19:53.610Z,9.88
2022-12-24T00:22:26.269Z,9.92
2022-12-24T00:25:01.833Z,9.92
2022-12-24T00:27:30.961Z,9.73
2022-12-24T00:30:04.263Z,9.80
2022-12-24T00:32:34.031Z,9.77
2022-12-24T00:35:10.711Z,9.70
2022-12-24T00:37:43.513Z,9.83
2022-12-24T00:40:13.153Z,9.87
2022-12-24T00:42:45.814Z,9.89
2022-12-24T00:45:21.664Z,9.82
2022-12-24T00:47:52.297Z,9.78
2022-12-24T00:50:23.502Z,9.60
2022-12-24T00:52:56.721Z,9.74
2022-12-24T00:55:28.266Z,9.79
2022-12-24T00:58:00.564Z,9.80
2022-12-24T01:00:30.370Z,9.75
2022-12-24T01:03:01.355Z,9.72
2022-12-24T01:05:33.156Z,9.71
2022-12-24T01:08:04.183Z,9.62
2022-12-24T01:10:36.383Z,9.45
2022-12-24T01:13:05.675Z,9.61
2022-12-24T01:15:35.487Z,9.67
2022-12-24T01:18:08.656Z,9.49
2022-12-24T01:20:37.877Z,9.58
2022-12-24T01:23:10.450Z,9.55
2022-12-24T01:25:44.155Z,9.61
2022-12-24T01:28:16.970Z,9.54
2022-12-24T01:30:50.922Z,9.52
2022-12-24T01:33:23.361Z,9.56
2022-12-24T01:35:52.776Z,9.62
2022-12-24T01:38:32.083Z,9.54
2022-12-24T01:41:16.888Z,9.57
2022-12-24T01:43:47.108Z,9.48
2022-12-24T01:46:19.571Z,9.41
2022-12-24T01:48:55.763Z,9.50
2022-12-24T01:51:29.119Z,9.50
2022-12-24T01:54:17.541Z,9.24
2022-12-24T01:56:49.058Z,9.19
2022-12-24T01:59:19.473Z,9.23
2022-12-24T02:01:50.821Z,9.47
2022-12-24T02:04:25.507Z,9.39
2022-12-24T02:06:58.066Z,9.27
2022-12-24T02:09:28.642Z,9.38
2022-12-24T02:11:59.902Z,9.30
2022-12-24T02:14:29.572Z,9.28
2022-12-24T02:17:01.032Z,9.44
2022-12-24T02:19:58.176Z,9.30
2022-12-24T02:22:29.946Z,9.37
2022-12-24T02:25:19.416Z,9.36
2022-12-24T02:27:55.996Z,9.32
2022-12-24T02:30:26.573Z,9.38
2022-12-24T02:33:06.320Z,9.31
2022-12-24T02:35:41.691Z,9.36
2022-12-24T02:38:14.643Z,9.24
2022-12-24T02:40:47.511Z,9.33
2022-12-24T02:43:19.827Z,9.36
2022-12-24T02:45:58.529Z,9.33
2022-12-24T02:48:27.919Z,9.34
2022-12-24T02:51:02.322Z,9.34
2022-12-24T02:53:31.212Z,9.36
2022-12-24T02:56:10.846Z,9.23
2022-12-24T02:58:44.909Z,9.35
2022-12-24T03:01:18.616Z,9.38
2022-12-24T03:03:55.253Z,9.35
2022-12-24T03:06:31.156Z,9.40
2022-12-24T03:09:01.613Z,9.51
2022-12-24T03:11:30.742Z,9.60
2022-12-24T03:13:59.655Z,9.38
2022-12-24T03:16:29.834Z,9.39
2022-12-24T03:18:58.921Z,9.51
2022-12-24T03:21:29.183Z,9.47
2022-12-24T03:23:57.978Z,9.46
2022-12-24T03:26:26.738Z,9.48
2022-12-24T03:28:55.566Z,9.50
2022-12-24T03:31:24.291Z,9.61
2022-12-24T03:33:54.472Z,9.64
2022-12-24T03:36:25.661Z,9.56
2022-12-24T03:38:54.799Z,9.43
2022-12-24T03:41:23.641Z,9.48
2022-12-24T03:43:52.370Z,9.61
2022-12-24T03:46:21.582Z,9.54
2022-12-24T03:48:50.500Z,9.57
2022-12-24T03:51:21.936Z,9.62
2022-12-24T03:53:50.810Z,9.62
2022-12-24T03:56:20.133Z,9.55
2022-12-24T03:58:48.968Z,9.50
2022-12-24T04:01:17.867Z,9.48
2022-12-24T04:03:47.022Z,9.56
2022-12-24T04:06:18.052Z,9.49
2022-12-24T04:08:48.214Z,9.51
2022-12-24T04:11:17.892Z,9.61
2022-12-24T04:13:46.710Z,9.37
2022-12-24T04:16:16.567Z,9.43
2022-12-24T04:18:45.623Z,9.41
2022-12-24T04:21:14.295Z,9.52
2022-12-24T04:23:43.286Z,9.56
2022-12-24T04:26:14.016Z,9.53
2022-12-24T04:28:43.125Z,9.57
2022-12-24T04:31:13.033Z,9.43
2022-12-24T04:33:41.771Z,9.42
2022-12-24T04:36:12.127Z,9.35
2022-12-24T04:38:40.890Z,9.50
2022-12-24T04:41:10.594Z,9.41
2022-12-24T04:43:40.857Z,9.38
2022-12-24T04:46:10.239Z,9.57
2022-12-24T04:48:39.277Z,9.50
2022-12-24T04:51:08.331Z,9.48
2022-12-24T04:53:37.253Z,9.29
2022-12-24T04:56:06.204Z,9.56
2022-12-24T04:58:35.663Z,9.61
2022-12-24T05:01:07.028Z,9.60
2022-12-24T05:03:35.881Z,9.47
2022-12-24T05:06:04.800Z,9.50
2022-12-24T05:08:34.020Z,9.51
2022-12-24T05:11:03.012Z,9.55
2022-12-24T05:13:39.070Z,9.62
2022-12-24T05:16:13.140Z,9.54
2022-12-24T05:18:41.971Z,9.57
2022-12-24T05:21:11.526Z,9.44
2022-12-24T05:23:53.874Z,9.36
2022-12-24T05:26:26.422Z,9.41
2022-12-24T05:28:56.165Z,9.31
2022-12-24T05:31:27.101Z,9.44
2022-12-24T05:33:56.049Z,9.51
2022-12-24T05:36:25.077Z,9.44
2022-12-24T05:38:53.890Z,9.31
2022-12-24T05:41:22.814Z,9.35
2022-12-24T05:43:51.487Z,9.35
2022-12-24T05:46:21.361Z,9.33
2022-12-24T05:48:51.702Z,9.29
2022-12-24T05:51:22.476Z,9.47
2022-12-24T05:53:51.747Z,9.32
2022-12-24T05:56:21.405Z,9.39
2022-12-24T05:58:50.215Z,9.30
2022-12-24T06:01:18.930Z,9.37
2022-12-24T06:03:49.670Z,9.32
2022-12-24T06:06:21.295Z,9.33
2022-12-24T06:08:50.385Z,9.39
2022-12-24T06:11:19.885Z,9.50
2022-12-24T06:13:48.647Z,9.54
2022-12-24T06:16:19.978Z,9.48
2022-12-24T06:18:48.923Z,9.55
2022-12-24T06:21:19.095Z,9.38
2022-12-24T06:23:48.308Z,9.44
2022-12-24T06:26:17.944Z,9.41
2022-12-24T06:31:34.188Z,9.34
2022-12-24T06:34:03.135Z,9.40
2022-12-24T06:36:33.583Z,9.37
2022-12-24T06:39:02.292Z,9.44
2022-12-24T06:41:31.011Z,9.49
2022-12-24T06:43:59.981Z,9.45
2022-12-24T06:46:28.700Z,9.39
2022-12-24T06:48:57.439Z,9.34
2022-12-24T06:51:26.102Z,9.33
2022-12-24T06:53:56.518Z,9.45
2022-12-24T06:56:25.207Z,9.48
2022-12-24T06:58:55.113Z,9.39
2022-12-24T07:01:26.808Z,9.49
2022-12-24T07:03:55.621Z,9.52
2022-12-24T07:06:27.016Z,9.42
2022-12-24T07:08:57.406Z,9.45
2022-12-24T07:11:26.396Z,9.44
2022-12-24T07:13:55.220Z,9.61
2022-12-24T07:16:24.041Z,9.44
2022-12-24T07:18:53.395Z,9.41
2022-12-24T07:21:22.202Z,9.47
2022-12-24T07:23:50.976Z,9.55
2022-12-24T07:26:21.462Z,9.67
2022-12-24T07:28:50.255Z,9.66
2022-12-24T07:31:19.122Z,9.45
2022-12-24T07:33:48.253Z,9.58
2022-12-24T07:36:19.512Z,9.47
2022-12-24T07:38:48.241Z,9.61
2022-12-24T07:41:16.985Z,9.52
2022-12-24T07:43:47.176Z,9.73
2022-12-24T07:46:15.955Z,9.55
2022-12-24T07:48:45.139Z,9.71
2022-12-24T07:51:13.842Z,9.64
2022-12-24T07:53:47.959Z,9.52
2022-12-24T07:56:16.923Z,9.48
2022-12-24T07:58:47.055Z,9.56
2022-12-24T08:01:15.968Z,9.57
2022-12-24T08:03:44.799Z,9.69
2022-12-24T08:06:13.695Z,9.72
2022-12-24T08:08:42.458Z,9.65
2022-12-24T08:11:11.186Z,9.67
2022-12-24T08:13:40.264Z,9.65
2022-12-24T08:16:10.504Z,9.82
2022-12-24T08:18:39.206Z,9.55
2022-12-24T08:21:08.916Z,9.60
2022-12-24T08:23:37.677Z,9.69
2022-12-24T08:26:08.474Z,9.57
2022-12-24T08:28:37.532Z,9.67
2022-12-24T08:31:06.666Z,9.66
2022-12-24T08:33:36.839Z,9.51
2022-12-24T08:36:11.361Z,9.64
2022-12-24T08:38:40.792Z,9.70
2022-12-24T08:41:11.099Z,9.73
2022-12-24T08:43:40.099Z,9.62
2022-12-24T08:46:09.155Z,9.61
2022-12-24T08:48:39.282Z,9.56
2022-12-24T08:51:09.880Z,9.66
2022-12-24T08:53:38.892Z,9.61
2022-12-24T08:56:08.816Z,9.69
2022-12-24T08:58:37.536Z,9.81
2022-12-24T09:01:12.463Z,9.94
2022-12-24T09:03:42.740Z,9.80
2022-12-24T09:06:11.710Z,9.70
2022-12-24T09:08:40.452Z,9.84
2022-12-24T09:11:10.433Z,9.69
2022-12-24T09:13:39.287Z,9.94
2022-12-24T09:16:08.534Z,9.94
2022-12-24T09:18:40.979Z,9.98
2022-12-24T09:21:14.883Z,9.97
2022-12-24T09:23:44.540Z,9.95
2022-12-24T09:26:15.273Z,9.67
2022-12-24T09:28:44.039Z,9.76
2022-12-24T09:31:14.457Z,9.91
2022-12-24T09:33:44.088Z,9.89
2022-12-24T09:36:14.382Z,9.86
2022-12-24T09:38:43.505Z,9.98
2022-12-24T09:41:14.214Z,9.91
2022-12-24T09:43:46.519Z,9.73
2022-12-24T09:46:18.948Z,9.83
2022-12-24T09:48:49.701Z,9.90
2022-12-24T09:51:44.913Z,9.89
2022-12-24T09:54:20.231Z,9.91
2022-12-24T09:56:49.955Z,10.01
2022-12-24T09:59:21.534Z,9.94
2022-12-24T10:01:50.755Z,9.88
2022-12-24T10:04:20.765Z,9.91
2022-12-24T10:06:53.981Z,10.10
2022-12-24T10:09:28.686Z,10.03
2022-12-24T10:12:02.483Z,10.08
2022-12-24T10:14:40.246Z,10.17
2022-12-24T10:17:19.806Z,10.18
2022-12-24T10:19:51.218Z,9.91
2022-12-24T10:22:24.782Z,9.98
2022-12-24T10:24:56.245Z,10.10
2022-12-24T10:27:26.421Z,10.05
2022-12-24T10:29:57.916Z,10.12
2022-12-24T10:32:45.323Z,10.05
2022-12-24T10:35:22.351Z,10.20
2022-12-24T10:37:52.847Z,9.99
2022-12-24T10:40:28.839Z,10.11
2022-12-24T10:42:57.588Z,10.12
2022-12-24T10:45:27.648Z,10.10
2022-12-24T10:47:57.375Z,10.32
2022-12-24T10:50:29.973Z,10.09
2022-12-24T10:53:04.393Z,10.17
2022-12-24T10:55:33.132Z,10.14
2022-12-24T10:58:03.449Z,10.16
2022-12-24T11:00:36.273Z,10.18
2022-12-24T11:03:21.694Z,10.08
2022-12-24T11:06:07.360Z,10.07
2022-12-24T11:08:37.951Z,10.10
2022-12-24T11:11:07.648Z,10.08
2022-12-24T11:13:39.008Z,10.13
2022-12-24T11:16:09.619Z,9.93
2022-12-24T11:18:38.998Z,9.96
2022-12-24T11:21:07.984Z,9.96
2022-12-24T11:23:38.123Z,10.07
2022-12-24T11:26:07.085Z,10.14
2022-12-24T11:28:35.851Z,10.32
2022-12-24T11:31:06.985Z,10.22
2022-12-24T11:33:48.261Z,10.40
2022-12-24T11:36:17.027Z,10.44
2022-12-24T11:38:47.525Z,10.30
2022-12-24T11:41:16.525Z,10.24
2022-12-24T11:43:46.235Z,10.37
2022-12-24T11:46:17.513Z,10.49
2022-12-24T11:48:46.362Z,10.74
2022-12-24T11:51:23.465Z,10.70
2022-12-24T11:53:57.869Z,10.74
2022-12-24T11:56:31.660Z,10.58
2022-12-24T11:59:03.112Z,10.64
2022-12-24T12:01:36.338Z,10.56
2022-12-24T12:04:07.013Z,10.92
2022-12-24T12:06:39.416Z,10.52
2022-12-24T12:09:13.491Z,10.81
2022-12-24T12:11:44.203Z,10.98
2022-12-24T12:14:16.882Z,10.99
2022-12-24T12:17:02.411Z,10.78
2022-12-24T12:19:34.282Z,11.02
2022-12-24T12:22:04.824Z,11.02
2022-12-24T12:24:39.006Z,11.07
2022-12-24T12:27:13.025Z,10.86
2022-12-24T12:29:44.869Z,10.80
2022-12-24T12:32:15.018Z,11.14
2022-12-24T12:34:45.379Z,10.94
2022-12-24T12:37:15.466Z,11.12
2022-12-24T12:39:45.679Z,11.35
2022-12-24T12:42:17.017Z,11.05
2022-12-24T12:44:58.754Z,11.27
2022-12-24T12:47:40.558Z,11.34
2022-12-24T12:50:12.835Z,11.10
2022-12-24T12:52:48.916Z,11.09
2022-12-24T12:55:27.897Z,11.36
2022-12-24T12:57:58.317Z,11.32
2022-12-24T13:00:27.265Z,11.48
2022-12-24T13:03:06.816Z,10.94
2022-12-24T13:05:49.477Z,11.13
2022-12-24T13:08:25.014Z,11.25
2022-12-24T13:11:14.990Z,11.05
2022-12-24T13:14:10.898Z,11.09
2022-12-24T13:16:53.694Z,11.07
2022-12-24T13:19:37.678Z,11.18
2022-12-24T13:22:07.558Z,11.21
2022-12-24T13:24:36.433Z,11.19
2022-12-24T13:27:08.416Z,11.14
2022-12-24T13:29:44.591Z,11.20
2022-12-24T13:32:39.802Z,11.12
2022-12-24T13:35:37.289Z,10.86
2022-12-24T13:38:33.080Z,10.96
2022-12-24T13:41:37.842Z,10.60
2022-12-24T13:44:33.051Z,10.55
2022-12-24T13:47:07.179Z,10.54
2022-12-24T13:49:37.986Z,10.33
2022-12-24T13:52:13.346Z,10.31
2022-12-24T13:54:43.281Z,10.30
2022-12-24T13:57:28.318Z,10.23
2022-12-24T14:00:01.321Z,10.33
2022-12-24T14:02:30.787Z,10.47
2022-12-24T14:05:03.949Z,10.34
2022-12-24T14:07:32.753Z,10.33
2022-12-24T14:10:01.660Z,10.25
2022-12-24T14:12:36.120Z,10.21
2022-12-24T14:15:34.381Z,10.17
2022-12-24T14:18:04.725Z,9.93
2022-12-24T14:20:33.617Z,9.83
2022-12-24T14:23:02.654Z,10.03
2022-12-24T14:25:31.542Z,10.08
2022-12-24T14:28:02.021Z,9.90
2022-12-24T14:30:31.425Z,9.84
2022-12-24T14:33:00.233Z,9.89
2022-12-24T14:35:31.898Z,10.07
2022-12-24T14:38:01.845Z,9.93
2022-12-24T14:40:31.738Z,9.90
2022-12-24T14:43:04.924Z,10.04
2022-12-24T14:45:35.420Z,9.92
2022-12-24T14:48:09.835Z,9.90
2022-12-24T14:50:46.141Z,9.82
2022-12-24T14:53:21.999Z,9.99
2022-12-24T14:55:51.800Z,9.93
2022-12-24T14:58:23.635Z,9.84
2022-12-24T15:00:52.564Z,10.00
2022-12-24T15:03:23.579Z,9.95
2022-12-24T15:05:55.847Z,9.99
2022-12-24T15:08:32.588Z,10.02
2022-12-24T15:11:10.433Z,10.10
2022-12-24T15:13:46.405Z,9.92
2022-12-24T15:16:20.938Z,9.80
2022-12-24T15:18:51.548Z,9.82
2022-12-24T15:21:27.370Z,10.00
2022-12-24T15:23:56.437Z,9.92
2022-12-24T15:26:31.451Z,9.82
2022-12-24T15:29:03.569Z,9.84
2022-12-24T15:31:36.635Z,9.79
2022-12-24T15:34:05.869Z,9.73
2022-12-24T15:36:36.767Z,9.59
2022-12-24T15:39:07.341Z,9.64
2022-12-24T15:41:59.512Z,9.75
2022-12-24T15:44:31.679Z,9.71
2022-12-24T15:47:04.094Z,9.70
2022-12-24T15:49:37.531Z,9.61
2022-12-24T15:52:14.120Z,9.71
2022-12-24T15:54:45.912Z,9.69
2022-12-24T15:57:16.841Z,9.56
2022-12-24T15:59:45.628Z,9.51
2022-12-24T16:02:33.923Z,9.52
2022-12-24T16:05:30.766Z,9.52
2022-12-24T16:08:19.425Z,9.43
2022-12-24T16:10:51.141Z,9.34
2022-12-24T16:13:20.884Z,9.25
2022-12-24T16:15:55.452Z,9.20
2022-12-24T16:18:28.281Z,9.16
2022-12-24T16:21:41.328Z,9.14
2022-12-24T16:24:18.696Z,9.04
2022-12-24T16:26:48.578Z,8.95
2022-12-24T16:29:19.578Z,9.08
2022-12-24T16:31:49.103Z,9.03
2022-12-24T16:34:18.982Z,9.02
2022-12-24T16:36:48.335Z,8.89
2022-12-24T16:39:26.269Z,8.92
2022-12-24T16:42:09.207Z,8.87
2022-12-24T16:44:38.394Z,8.76
2022-12-24T16:47:08.408Z,8.86
2022-12-24T16:49:38.339Z,8.92
2022-12-24T16:52:07.188Z,8.97
2022-12-24T16:54:38.348Z,8.92
2022-12-24T16:57:07.359Z,8.83
2022-12-24T16:59:38.375Z,8.92
2022-12-24T17:02:14.513Z,8.91
2022-12-24T17:04:43.913Z,8.85
2022-12-24T17:07:13.568Z,8.79
2022-12-24T17:09:43.830Z,8.81
2022-12-24T17:12:13.953Z,8.79
2022-12-24T17:14:45.123Z,8.73
2022-12-24T17:17:22.024Z,8.70
2022-12-24T17:19:50.964Z,8.66
2022-12-24T17:22:21.112Z,8.61
2022-12-24T17:24:51.544Z,8.61
2022-12-24T17:27:20.892Z,8.56
2022-12-24T17:29:50.073Z,8.53
2022-12-24T17:32:20.576Z,8.46
2022-12-24T17:34:49.393Z,8.42
2022-12-24T17:37:18.481Z,8.39
2022-12-24T17:39:50.037Z,8.48
2022-12-24T17:42:25.188Z,8.41
2022-12-24T17:44:54.225Z,8.49
2022-12-24T17:47:24.493Z,8.54
2022-12-24T17:50:06.025Z,8.54
2022-12-24T17:52:35.468Z,8.57
2022-12-24T17:55:13.397Z,8.59
2022-12-24T17:57:44.957Z,8.63
2022-12-24T18:00:29.496Z,8.66
2022-12-24T18:03:02.275Z,8.73
2022-12-24T18:05:37.643Z,8.75
2022-12-24T18:08:08.374Z,8.79
2022-12-24T18:10:43.353Z,8.73
2022-12-24T18:13:20.892Z,8.69
2022-12-24T18:15:52.087Z,8.69
2022-12-24T18:18:21.263Z,8.67
2022-12-24T18:20:50.109Z,8.66
2022-12-24T18:23:19.953Z,8.57
2022-12-24T18:25:48.706Z,8.59
2022-12-24T18:28:21.417Z,8.59
2022-12-24T18:30:59.569Z,8.65
2022-12-24T18:33:28.323Z,8.71
2022-12-24T18:35:57.037Z,8.77
2022-12-24T18:38:26.068Z,8.83
2022-12-24T18:40:56.123Z,8.91
2022-12-24T18:43:26.804Z,8.97
2022-12-24T18:45:56.694Z,8.99
2022-12-24T18:48:25.576Z,9.00
2022-12-24T18:50:58.131Z,8.94
2022-12-24T18:53:27.548Z,9.00
2022-12-24T18:55:56.275Z,9.08
2022-12-24T18:58:26.418Z,9.04
2022-12-24T19:00:55.518Z,9.09
2022-12-24T19:03:31.754Z,9.04
2022-12-24T19:06:03.467Z,9.12
2022-12-24T19:11:27.131Z,9.18
2022-12-24T19:13:58.390Z,9.14
2022-12-24T19:16:30.434Z,9.08
2022-12-24T19:18:59.408Z,9.07
2022-12-24T19:21:28.131Z,9.19
2022-12-24T19:23:57.200Z,9.17
2022-12-24T19:26:25.981Z,9.22
2022-12-24T19:28:56.577Z,9.21
2022-12-24T19:31:26.283Z,9.22
2022-12-24T19:33:55.897Z,9.27
2022-12-24T19:36:25.695Z,9.36
2022-12-24T19:38:54.397Z,9.20
2022-12-24T19:41:24.127Z,9.26
2022-12-24T19:43:54.579Z,9.22
2022-12-24T19:46:26.229Z,9.37
2022-12-24T19:48:56.031Z,9.28
2022-12-24T19:51:24.944Z,9.23
2022-12-24T19:53:54.079Z,9.25
2022-12-24T19:56:23.755Z,9.30
2022-12-24T19:58:52.558Z,9.26
2022-12-24T20:01:22.327Z,9.18
2022-12-24T20:03:53.132Z,9.22
2022-12-24T20:06:23.132Z,9.18
2022-12-24T20:08:51.825Z,9.33
2022-12-24T20:11:23.288Z,9.29
2022-12-24T20:13:55.227Z,9.31
2022-12-24T20:16:24.878Z,9.25
2022-12-24T20:18:55.511Z,9.26
2022-12-24T20:21:24.322Z,9.28
2022-12-24T20:23:53.179Z,9.33
2022-12-24T20:26:22.900Z,9.23
2022-12-24T20:28:51.610Z,9.15
2022-12-24T20:34:08.986Z,9.15
2022-12-24T20:36:38.706Z,8.98
2022-12-24T20:39:25.379Z,9.00
2022-12-24T20:41:54.139Z,8.83
2022-12-24T20:44:22.908Z,8.84
2022-12-24T20:46:52.165Z,8.83
2022-12-24T20:49:23.321Z,8.89
2022-12-24T20:51:52.285Z,8.78
2022-12-24T20:54:21.497Z,8.75
2022-12-24T20:56:58.683Z,8.74
2022-12-24T20:59:27.819Z,8.65
2022-12-24T21:01:57.033Z,8.72
2022-12-24T21:04:27.318Z,8.56
2022-12-24T21:06:56.049Z,8.67
2022-12-24T21:09:26.276Z,8.64
2022-12-24T21:12:08.807Z,8.66
2022-12-24T21:14:38.931Z,8.63
2022-12-24T21:17:13.576Z,8.66
2022-12-24T21:19:46.811Z,8.72
2022-12-24T21:22:18.383Z,8.69
2022-12-24T21:24:47.103Z,8.60
2022-12-24T21:27:15.868Z,8.63
2022-12-24T21:29:44.591Z,8.67
2022-12-24T21:32:14.089Z,8.62
2022-12-24T21:34:44.664Z,8.55
2022-12-24T21:37:16.000Z,8.54
2022-12-24T21:39:44.756Z,8.49
2022-12-24T21:42:13.704Z,8.56
2022-12-24T21:44:42.656Z,8.52
2022-12-24T21:47:11.525Z,8.59
2022-12-24T21:49:54.182Z,8.40
2022-12-24T21:52:24.349Z,8.52
2022-12-24T21:54:52.027Z,8.57
2022-12-24T21:57:34.481Z,8.57
2022-12-24T22:00:17.069Z,8.54
2022-12-24T22:02:46.583Z,8.52
2022-12-24T22:05:15.617Z,8.50
2022-12-24T22:07:59.686Z,8.47
2022-12-24T22:10:42.831Z,8.61
2022-12-24T22:13:11.797Z,8.53
2022-12-24T22:15:45.000Z,8.59
2022-12-24T22:18:17.122Z,8.60
2022-12-24T22:20:46.689Z,8.61
2022-12-24T22:23:17.271Z,8.41
2022-12-24T22:25:46.263Z,8.61
2022-12-24T22:28:15.093Z,8.52
2022-12-24T22:30:44.385Z,8.59
2022-12-24T22:33:13.233Z,8.47
2022-12-24T22:35:41.976Z,8.43
2022-12-24T22:38:10.914Z,8.48
2022-12-24T22:40:43.221Z,8.55
2022-12-24T22:43:12.554Z,8.40
2022-12-24T22:45:41.263Z,8.53
2022-12-24T22:48:11.473Z,8.53
2022-12-24T22:50:43.905Z,8.59
2022-12-24T22:53:12.983Z,8.50
2022-12-24T22:55:43.145Z,8.49
2022-12-24T22:58:11.969Z,8.44
2022-12-24T23:00:42.249Z,8.45
2022-12-24T23:03:11.623Z,8.45
2022-12-24T23:05:40.508Z,8.43
2022-12-24T23:08:09.625Z,8.44
2022-12-24T23:10:38.389Z,8.39
2022-12-24T23:13:22.299Z,8.38
2022-12-24T23:15:51.119Z,8.30
2022-12-24T23:18:20.291Z,8.41
2022-12-24T23:20:49.128Z,8.46
2022-12-24T23:23:18.283Z,8.45
2022-12-24T23:25:47.041Z,8.37
2022-12-24T23:28:17.422Z,8.35
2022-12-24T23:30:46.268Z,8.43
2022-12-24T23:33:15.046Z,8.37
2022-12-24T23:35:43.767Z,8.48
2022-12-24T23:38:12.844Z,8.42
2022-12-24T23:40:43.232Z,8.31
2022-12-24T23:43:12.040Z,8.30
2022-12-24T23:45:45.909Z,8.36
2022-12-24T23:48:14.544Z,8.31
2022-12-24T23:50:43.217Z,8.34
2022-12-24T23:53:12.047Z,8.17
2022-12-24T23:55:40.941Z,8.20
2022-12-24T23:58:10.132Z,8.15
